Time;durP1;ratioP1;P1;durP2;ratioP2;P2;SDS_P1;SDS_P2;PMS_P1;PMS_P2;Temp;Humidity;BMP_temperature;BMP_pressure;BME280_temperature;BME280_humidity;BME280_pressure;Samples;Min_cycle;Max_cycle;Signal;HPM_P1;HPM_P2
2023/02/02 00:00:45;;;;;;;;;;;;;;;27.87;69.02;100961.13;5078038;27;66867;-35
2023/02/02 00:03:15;;;;;;;;;;;;;;;27.91;70.15;100970.47;5100229;27;69880;-35
2023/02/02 00:05:50;;;;;;;;;;;;;;;27.94;70.83;100978.16;5095769;27;66487;-33
2023/02/02 00:08:21;;;;;;;;;;;;;;;27.97;71.02;100976.94;5091254;27;68713;-34
2023/02/02 00:10:51;;;;;;;;;;;;;;;28.01;69.78;100981.75;5082456;27;66022;-36
2023/02/02 00:13:22;;;;;;;;;;;;;;;28.04;69.12;100981.34;5088391;27;71046;-35
2023/02/02 00:15:53;;;;;;;;;;;;;;;28.07;69.27;100986.34;5087780;27;67151;-35
2023/02/02 00:18:23;;;;;;;;;;;;;;;28.11;68.99;100989.50;5086975;27;70464;-37
2023/02/02 00:20:54;;;;;;;;;;;;;;;28.12;69.58;100982.22;5074738;27;66877;-35
2023/02/02 00:23:24;;;;;;;;;;;;;;;28.16;69.80;100991.56;5087895;27;70202;-36
2023/02/02 00:25:55;;;;;;;;;;;;;;;28.20;70.22;100998.25;5088821;27;66573;-37
2023/02/02 00:28:25;;;;;;;;;;;;;;;28.22;70.91;100998.84;5098712;27;69249;-35
2023/02/02 00:30:56;;;;;;;;;;;;;;;28.23;71.54;101003.22;5092897;27;66062;-37
2023/02/02 00:33:27;;;;;;;;;;;;;;;28.22;69.35;100998.84;5097333;27;70475;-36
2023/02/02 00:35:57;;;;;;;;;;;;;;;28.25;67.28;101001.16;5085132;27;66332;-34
2023/02/02 00:38:29;;;;;;;;;;;;;;;28.29;66.64;101002.44;5088973;27;70327;-35
2023/02/02 00:40:59;;;;;;;;;;;;;;;28.33;65.83;101003.69;5072722;27;66104;-35
2023/02/02 00:43:30;;;;;;;;;;;;;;;28.37;65.60;101004.97;5078808;27;70082;-36
2023/02/02 00:46:00;;;;;;;;;;;;;;;28.40;65.42;101012.66;5093133;27;66319;-35
2023/02/02 00:48:31;;;;;;;;;;;;;;;28.43;64.93;101025.78;5098311;27;69240;-33
2023/02/02 00:51:05;;;;;;;;;;;;;;;28.47;65.19;101021.66;5083893;27;58714;-34
2023/02/02 00:53:36;;;;;;;;;;;;;;;28.49;64.84;101030.34;5094600;27;69447;-34
2023/02/02 00:56:07;;;;;;;;;;;;;;;28.52;64.89;101029.97;5091004;27;67455;-35
2023/02/02 00:58:37;;;;;;;;;;;;;;;28.56;65.22;101034.97;5098613;27;69526;-34
2023/02/02 01:01:14;;;;;;;;;;;;;;;28.58;64.77;101038.28;5100069;27;66577;-36
2023/02/02 01:03:46;;;;;;;;;;;;;;;28.60;64.93;101041.63;5071847;27;69859;-34
2023/02/02 01:06:16;;;;;;;;;;;;;;;28.61;65.26;101048.69;5089530;27;67317;-34
2023/02/02 01:08:47;;;;;;;;;;;;;;;28.40;64.92;101015.34;5096150;27;70216;-35
2023/02/02 01:11:18;;;;;;;;;;;;;;;28.66;65.22;101054.31;5091832;27;67865;-36
2023/02/02 01:13:48;;;;;;;;;;;;;;;28.67;65.33;101053.28;5094624;27;69531;-33
2023/02/02 01:16:21;;;;;;;;;;;;;;;28.69;65.74;101062.00;5092673;27;65404;-36
2023/02/02 01:18:51;;;;;;;;;;;;;;;28.71;64.99;101068.03;5063649;27;69839;-34
2023/02/02 01:21:23;;;;;;;;;;;;;;;28.73;65.08;101068.69;5073052;27;66843;-35
2023/02/02 01:23:53;;;;;;;;;;;;;;;28.75;65.45;101072.00;5092659;27;70065;-35
2023/02/02 01:26:24;;;;;;;;;;;;;;;28.77;65.37;101075.34;5074023;27;65803;-34
2023/02/02 01:28:54;;;;;;;;;;;;;;;28.78;64.98;101085.13;5063714;27;69797;-34
2023/02/02 01:31:25;;;;;;;;;;;;;;;28.80;64.93;101085.72;5092543;27;66102;-35
2023/02/02 01:33:56;;;;;;;;;;;;;;;28.83;65.34;101092.59;5097313;27;69348;-34
2023/02/02 01:36:28;;;;;;;;;;;;;;;28.84;65.16;101096.97;5092863;27;65356;-35
2023/02/02 01:38:58;;;;;;;;;;;;;;;28.86;65.30;101095.75;5077243;27;70648;-36
2023/02/02 01:41:29;;;;;;;;;;;;;;;28.87;65.05;101102.78;5072156;27;66847;-35
2023/02/02 01:44:03;;;;;;;;;;;;;;;28.90;65.61;101112.38;5097410;27;69744;-36
2023/02/02 01:46:35;;;;;;;;;;;;;;;28.92;65.48;101115.72;5098113;27;66526;-35
2023/02/02 01:49:15;;;;;;;;;;;;;;;28.93;65.27;101117.34;5081599;27;69981;-35
2023/02/02 01:51:51;;;;;;;;;;;;;;;28.94;65.50;101114.44;5095512;27;65320;-35
2023/02/02 01:54:42;;;;;;;;;;;;;;;28.98;65.28;101119.47;5078184;27;69785;-35
2023/02/02 01:57:18;;;;;;;;;;;;;;;29.00;65.27;101122.78;5095593;27;65297;-35
2023/02/02 01:59:50;;;;;;;;;;;;;;;29.03;65.63;101116.97;5093412;27;70617;-36
2023/02/02 02:02:21;;;;;;;;;;;;;;;29.03;65.71;101117.84;5091124;27;65479;-35
2023/02/02 02:04:53;;;;;;;;;;;;;;;29.06;65.69;101130.09;5075569;27;70134;-34
2023/02/02 02:07:24;;;;;;;;;;;;;;;29.07;65.29;101129.06;5073842;27;66614;-34
2023/02/02 02:09:55;;;;;;;;;;;;;;;29.09;65.90;101129.72;5098441;27;70388;-35
2023/02/02 02:12:26;;;;;;;;;;;;;;;29.11;65.75;101135.72;5091265;27;65854;-35
2023/02/02 02:17:48;;;;;;;;;;;;;;;29.15;65.60;101137.00;5080529;27;66794;-35
2023/02/02 02:26:38;;;;;;;;;;;;;;;29.20;65.58;101156.16;5087700;27;69684;-34
2023/02/02 02:29:08;;;;;;;;;;;;;;;29.23;65.71;101152.22;5084273;27;65989;-35
2023/02/02 02:31:57;;;;;;;;;;;;;;;29.24;65.72;101149.28;5074346;27;70176;-34
2023/02/02 02:34:34;;;;;;;;;;;;;;;29.26;66.03;101160.72;5072033;27;66791;-37
2023/02/02 02:37:23;;;;;;;;;;;;;;;29.28;66.26;101157.81;5082377;27;69782;-35
2023/02/02 02:39:57;;;;;;;;;;;;;;;29.28;66.13;101155.97;5075405;27;67016;-34
2023/02/02 02:42:30;;;;;;;;;;;;;;;29.30;66.73;101151.16;5092238;27;69534;-35
2023/02/02 02:45:03;;;;;;;;;;;;;;;29.32;66.93;101149.09;5094528;27;66676;-35
2023/02/02 02:47:34;;;;;;;;;;;;;;;29.34;66.47;101140.81;5079837;27;70923;-35
2023/02/02 02:50:05;;;;;;;;;;;;;;;29.36;66.50;101155.78;5068308;27;66279;-34
2023/02/02 02:52:37;;;;;;;;;;;;;;;29.37;66.74;101146.63;5101444;27;71193;-35
2023/02/02 02:55:09;;;;;;;;;;;;;;;29.39;67.38;101149.97;5088082;27;66218;-35
2023/02/02 02:57:52;;;;;;;;;;;;;;;29.42;66.84;101155.97;5090960;27;70757;-35
2023/02/02 03:00:23;;;;;;;;;;;;;;;29.44;66.63;101156.63;5071971;27;65020;-34
2023/02/02 03:03:08;;;;;;;;;;;;;;;29.45;67.26;101150.16;5100359;27;70310;-34
2023/02/02 03:05:44;;;;;;;;;;;;;;;29.47;66.74;101150.81;5092055;27;66937;-35
2023/02/02 03:08:18;;;;;;;;;;;;;;;29.49;66.66;101135.22;5095963;27;69813;-37
2023/02/02 03:10:48;;;;;;;;;;;;;;;29.51;69.33;101130.47;5097286;27;66882;-37
2023/02/02 03:13:19;;;;;;;;;;;;;;;29.54;69.50;101130.88;5100033;27;68909;-35
2023/02/02 03:15:49;;;;;;;;;;;;;;;29.56;68.95;101122.53;5098175;27;66018;-33
2023/02/02 03:18:22;;;;;;;;;;;;;;;29.57;68.69;101127.75;5088482;27;68909;-34
2023/02/02 03:20:52;;;;;;;;;;;;;;;29.57;68.36;101116.13;5100105;27;67184;-33
2023/02/02 03:23:23;;;;;;;;;;;;;;;29.57;67.91;101125.06;5101842;27;70769;-33
2023/02/02 03:25:54;;;;;;;;;;;;;;;29.58;68.21;101117.75;5098483;27;66825;-33
2023/02/02 03:28:24;;;;;;;;;;;;;;;29.57;68.73;101116.94;5101773;27;69284;-32
2023/02/02 03:30:58;;;;;;;;;;;;;;;29.61;68.11;101115.50;5099959;27;65479;-34
2023/02/02 03:33:30;;;;;;;;;;;;;;;29.66;67.27;101112.19;5089613;27;70067;-35
2023/02/02 03:36:01;;;;;;;;;;;;;;;29.69;67.19;101109.06;5100514;27;66620;-35
2023/02/02 03:38:32;;;;;;;;;;;;;;;29.73;66.80;101106.81;5100327;27;70748;-36
2023/02/02 03:41:04;;;;;;;;;;;;;;;29.76;66.38;101101.81;5083241;27;66357;-35
2023/02/02 03:43:34;;;;;;;;;;;;;;;29.78;65.87;101110.56;5093306;27;69123;-34
2023/02/02 03:46:05;;;;;;;;;;;;;;;29.80;66.09;101097.63;5091475;27;67464;-35
2023/02/02 03:48:37;;;;;;;;;;;;;;;29.82;65.25;101090.16;5093509;27;69525;-36
2023/02/02 03:51:10;;;;;;;;;;;;;;;29.84;65.37;101093.50;5096171;27;66138;-34
2023/02/02 03:53:46;;;;;;;;;;;;;;;29.88;65.80;101095.78;5091721;27;70562;-36
2023/02/02 03:56:18;;;;;;;;;;;;;;;29.90;65.78;101094.53;5094610;27;66023;-35
2023/02/02 03:58:49;;;;;;;;;;;;;;;29.92;65.40;101088.91;5060931;27;68285;-34
2023/02/02 04:01:25;;;;;;;;;;;;;;;29.93;65.37;101091.41;5092638;27;68711;-35
2023/02/02 04:03:56;;;;;;;;;;;;;;;29.95;65.47;101088.47;5091826;27;69026;-34
2023/02/02 04:06:27;;;;;;;;;;;;;;;29.95;65.33;101078.50;5094742;27;66279;-34
2023/02/02 04:08:57;;;;;;;;;;;;;;;29.97;65.48;101079.13;5096832;27;69395;-35
2023/02/02 04:11:28;;;;;;;;;;;;;;;30.00;65.32;101075.16;5070822;27;64826;-36
2023/02/02 04:13:59;;;;;;;;;;;;;;;29.77;65.02;101033.16;5094021;27;70165;-35
2023/02/02 04:16:33;;;;;;;;;;;;;;;30.03;65.29;101059.38;5077498;27;67909;-35
2023/02/02 04:19:04;;;;;;;;;;;;;;;30.05;64.63;101062.66;5091025;27;70201;-35
2023/02/02 04:21:34;;;;;;;;;;;;;;;30.07;64.55;101065.19;5099916;27;65886;-35
2023/02/02 04:24:06;;;;;;;;;;;;;;;30.10;64.76;101053.94;5062038;27;69052;-34
2023/02/02 04:26:37;;;;;;;;;;;;;;;30.12;64.21;101054.56;5100803;27;66145;-36
2023/02/02 04:29:07;;;;;;;;;;;;;;;30.14;64.35;101048.94;5097166;27;70700;-35
2023/02/02 04:31:38;;;;;;;;;;;;;;;30.16;63.98;101049.56;5099984;27;65303;-36
2023/02/02 04:34:08;;;;;;;;;;;;;;;30.19;64.25;101046.41;5096158;27;70262;-36
2023/02/02 04:36:40;;;;;;;;;;;;;;;30.20;63.46;101040.81;5098653;27;66458;-35
2023/02/02 04:39:11;;;;;;;;;;;;;;;30.23;63.54;101037.72;5097898;27;69279;-34
2023/02/02 04:41:42;;;;;;;;;;;;;;;30.25;63.22;101035.59;5098899;27;65972;-35
2023/02/02 04:44:14;;;;;;;;;;;;;;;30.27;63.20;101025.41;5099374;27;69859;-37
2023/02/02 04:46:45;;;;;;;;;;;;;;;30.30;63.37;101026.03;5096949;27;66521;-35
2023/02/02 04:49:15;;;;;;;;;;;;;;;30.32;63.05;101024.78;5071902;27;69701;-35
2023/02/02 04:51:46;;;;;;;;;;;;;;;30.34;63.06;101013.72;5093438;27;66342;-34
2023/02/02 04:54:17;;;;;;;;;;;;;;;30.36;63.13;101008.94;5092902;27;69592;-34
2023/02/02 04:56:47;;;;;;;;;;;;;;;30.37;62.79;101002.47;5092892;27;65537;-35
2023/02/02 04:59:18;;;;;;;;;;;;;;;30.38;62.82;101004.16;5093774;27;70160;-35
2023/02/02 05:01:49;;;;;;;;;;;;;;;30.37;62.88;100995.19;5077933;27;66623;-35
2023/02/02 05:04:20;;;;;;;;;;;;;;;30.38;63.14;101001.44;5074461;27;68863;-35
2023/02/02 05:06:50;;;;;;;;;;;;;;;30.39;63.25;100986.84;5060256;27;64990;-34
2023/02/02 05:09:21;;;;;;;;;;;;;;;30.39;63.32;100984.13;5095223;27;70037;-35
2023/02/02 05:11:52;;;;;;;;;;;;;;;30.39;63.26;100976.03;5091969;27;66238;-34
2023/02/02 05:14:22;;;;;;;;;;;;;;;30.39;62.83;100978.72;5097312;27;69254;-35
2023/02/02 05:16:53;;;;;;;;;;;;;;;30.41;63.53;100971.22;5096476;27;66681;-35
2023/02/02 05:19:24;;;;;;;;;;;;;;;30.43;62.91;100971.84;5097438;27;70500;-36
2023/02/02 05:21:54;;;;;;;;;;;;;;;30.43;63.42;100974.56;5094490;27;65853;-35
2023/02/02 05:24:26;;;;;;;;;;;;;;;30.44;63.55;100963.50;5101300;27;69137;-34
2023/02/02 05:26:59;;;;;;;;;;;;;;;30.45;63.07;100965.19;5096728;27;66510;-35
2023/02/02 05:29:30;;;;;;;;;;;;;;;30.46;63.33;100960.59;5074899;27;69922;-36
2023/02/02 05:32:00;;;;;;;;;;;;;;;30.47;63.39;100946.00;5099422;27;66981;-38
2023/02/02 05:34:31;;;;;;;;;;;;;;;30.48;63.70;100947.69;5094236;27;70203;-34
2023/02/02 05:37:01;;;;;;;;;;;;;;;30.47;63.69;100930.59;5100488;27;65917;-34
2023/02/02 05:39:32;;;;;;;;;;;;;;;30.50;63.65;100929.31;5090494;27;69935;-35
2023/02/02 05:42:03;;;;;;;;;;;;;;;30.52;63.60;100921.84;5100252;27;66596;-34
2023/02/02 05:44:33;;;;;;;;;;;;;;;30.54;63.28;100916.22;5094429;27;70072;-34
2023/02/02 05:47:04;;;;;;;;;;;;;;;30.56;63.59;100911.38;5096848;27;66043;-35
2023/02/02 05:49:34;;;;;;;;;;;;;;;30.57;63.07;100903.06;5085202;27;69945;-35
2023/02/02 05:52:05;;;;;;;;;;;;;;;30.59;63.53;100902.84;5084766;27;65418;-35
2023/02/02 05:54:36;;;;;;;;;;;;;;;30.60;63.20;100902.63;5096429;27;69406;-35
2023/02/02 05:57:07;;;;;;;;;;;;;;;30.63;63.31;100896.78;5099817;27;66164;-34
2023/02/02 05:59:37;;;;;;;;;;;;;;;30.64;63.09;100890.28;5100210;27;69821;-35
2023/02/02 06:02:08;;;;;;;;;;;;;;;30.64;62.94;100882.16;5096257;27;66772;-34
2023/02/02 06:04:38;;;;;;;;;;;;;;;30.67;63.33;100880.91;5095291;27;70383;-35
2023/02/02 06:07:09;;;;;;;;;;;;;;;30.69;62.78;100876.94;5099911;27;65672;-36
2023/02/02 06:09:40;;;;;;;;;;;;;;;30.70;63.27;100870.50;5094049;27;70390;-36
2023/02/02 06:12:10;;;;;;;;;;;;;;;30.72;63.26;100870.25;5099512;27;65610;-34
2023/02/02 06:14:41;;;;;;;;;;;;;;;30.73;63.42;100864.63;5096834;27;69563;-36
2023/02/02 06:17:12;;;;;;;;;;;;;;;30.76;63.04;100862.50;5090457;27;67037;-37
2023/02/02 06:19:42;;;;;;;;;;;;;;;30.77;63.19;100854.19;5075025;27;69903;-36
2023/02/02 06:22:13;;;;;;;;;;;;;;;30.81;62.72;100854.59;5083260;27;66419;-34
2023/02/02 06:24:43;;;;;;;;;;;;;;;30.81;63.21;100839.16;5098799;27;69647;-34
2023/02/02 06:27:14;;;;;;;;;;;;;;;30.83;62.89;100836.25;5099547;27;66087;-35
2023/02/02 06:29:44;;;;;;;;;;;;;;;30.85;62.83;100836.88;5081421;27;70489;-36
2023/02/02 06:32:15;;;;;;;;;;;;;;;30.86;63.33;100822.28;5080302;27;66634;-36
2023/02/02 06:34:45;;;;;;;;;;;;;;;30.89;62.96;100824.53;5093433;27;69518;-35
2023/02/02 06:37:16;;;;;;;;;;;;;;;30.88;63.10;100820.19;5070986;27;65481;-36
2023/02/02 06:39:46;;;;;;;;;;;;;;;30.90;63.10;100808.06;5066588;27;69289;-35
2023/02/02 06:42:17;;;;;;;;;;;;;;;30.91;63.09;100806.19;5065563;27;66422;-36
2023/02/02 06:44:50;;;;;;;;;;;;;;;30.93;63.10;100795.97;5073678;27;69808;-37
2023/02/02 06:47:20;;;;;;;;;;;;;;;30.95;62.97;100785.72;5099881;27;66656;-36
2023/02/02 06:49:52;;;;;;;;;;;;;;;30.97;62.61;100794.44;5079780;27;69917;-37
2023/02/02 06:52:23;;;;;;;;;;;;;;;30.98;63.13;100790.72;5079068;28;66287;-37
2023/02/02 06:54:53;;;;;;;;;;;;;;;31.00;62.69;100775.03;5079138;27;69424;-36
2023/02/02 06:57:24;;;;;;;;;;;;;;;31.02;62.52;100772.13;5068575;28;66947;-35
2023/02/02 06:59:55;;;;;;;;;;;;;;;31.02;62.56;100781.06;5075505;27;69060;-36
2023/02/02 07:02:26;;;;;;;;;;;;;;;31.02;62.76;100781.06;5076825;27;66962;-36
2023/02/02 07:04:57;;;;;;;;;;;;;;;31.03;63.01;100766.47;5078366;27;70695;-36
2023/02/02 07:07:31;;;;;;;;;;;;;;;31.03;62.75;100761.03;5079207;27;66882;-35
2023/02/02 07:10:02;;;;;;;;;;;;;;;31.05;62.53;100760.84;5079813;27;69749;-36
2023/02/02 07:12:32;;;;;;;;;;;;;;;31.05;62.74;100764.38;5077284;27;65980;-36
2023/02/02 07:15:03;;;;;;;;;;;;;;;31.06;62.91;100755.19;5080888;27;70301;-38
2023/02/02 07:17:34;;;;;;;;;;;;;;;31.07;62.80;100759.56;5061110;27;66368;-36
2023/02/02 07:20:05;;;;;;;;;;;;;;;31.10;62.82;100755.56;5069159;27;70177;-35
2023/02/02 07:22:37;;;;;;;;;;;;;;;31.09;62.70;100749.34;5078102;27;67045;-35
2023/02/02 07:25:08;;;;;;;;;;;;;;;31.10;62.61;100750.97;5077447;27;69855;-36
2023/02/02 07:27:39;;;;;;;;;;;;;;;31.11;63.03;100747.22;5070610;27;66303;-34
2023/02/02 07:30:10;;;;;;;;;;;;;;;31.11;63.05;100736.38;5074104;27;70358;-34
2023/02/02 07:32:45;;;;;;;;;;;;;;;31.12;63.18;100738.03;5073558;27;66763;-34
2023/02/02 07:35:16;;;;;;;;;;;;;;;31.16;63.13;100727.56;5074837;27;70460;-34
2023/02/02 07:37:56;;;;;;;;;;;;;;;31.16;62.87;100731.09;5071981;27;66266;-34
2023/02/02 07:40:26;;;;;;;;;;;;;;;31.19;62.93;100721.69;5087774;27;70523;-34
2023/02/02 07:42:59;;;;;;;;;;;;;;;31.19;62.81;100720.88;5076830;27;66036;-36
2023/02/02 07:45:30;;;;;;;;;;;;;;;31.21;63.10;100718.78;5072807;27;70315;-35
2023/02/02 07:48:01;;;;;;;;;;;;;;;31.22;62.66;100721.25;5062562;27;65545;-34
2023/02/02 07:50:31;;;;;;;;;;;;;;;31.22;62.85;100715.00;5090147;27;70142;-35
2023/02/02 07:53:02;;;;;;;;;;;;;;;31.23;62.67;100705.81;5073849;27;65195;-35
2023/02/02 07:55:32;;;;;;;;;;;;;;;31.24;62.46;100708.31;5095910;27;69993;-39
2023/02/02 07:58:03;;;;;;;;;;;;;;;31.24;62.32;100707.47;5094571;27;65642;-35
2023/02/02 08:00:34;;;;;;;;;;;;;;;31.24;62.30;100707.47;5088997;27;69892;-35
2023/02/02 08:03:05;;;;;;;;;;;;;;;31.25;62.43;100707.25;5091370;27;65976;-35
2023/02/02 08:05:35;;;;;;;;;;;;;;;31.26;62.04;100705.34;5093310;27;69931;-33
2023/02/02 08:08:06;;;;;;;;;;;;;;;31.26;62.04;100698.06;5094206;27;67094;-34
2023/02/02 08:10:37;;;;;;;;;;;;;;;31.28;62.31;100704.06;5095673;27;69781;-36
2023/02/02 08:13:07;;;;;;;;;;;;;;;31.29;62.00;100699.50;5091598;27;66860;-34
2023/02/02 08:15:38;;;;;;;;;;;;;;;31.10;62.39;100664.28;5097188;27;69533;-35
2023/02/02 08:18:08;;;;;;;;;;;;;;;31.33;62.05;100696.09;5087700;27;65712;-37
2023/02/02 08:20:39;;;;;;;;;;;;;;;31.36;62.08;100689.41;5094185;27;70682;-36
2023/02/02 08:23:14;;;;;;;;;;;;;;;31.39;62.31;100694.38;5086412;27;66640;-39
2023/02/02 08:25:44;;;;;;;;;;;;;;;31.41;61.83;100686.03;5087591;27;69757;-34
2023/02/02 08:28:15;;;;;;;;;;;;;;;31.42;62.01;100677.66;5091854;27;67559;-35
2023/02/02 08:30:46;;;;;;;;;;;;;;;31.44;62.00;100678.25;5081193;27;70612;-35
2023/02/02 08:33:17;;;;;;;;;;;;;;;31.47;61.92;100683.22;5096044;27;65878;-34
2023/02/02 08:35:47;;;;;;;;;;;;;;;31.51;62.01;100687.16;5084147;27;70040;-34
2023/02/02 08:38:18;;;;;;;;;;;;;;;31.54;62.02;100686.69;5097230;27;66811;-36
2023/02/02 08:40:48;;;;;;;;;;;;;;;31.57;62.13;100686.22;5093233;27;69874;-35
2023/02/02 08:43:19;;;;;;;;;;;;;;;31.59;61.90;100689.53;5097113;27;66578;-35
2023/02/02 08:45:51;;;;;;;;;;;;;;;31.63;62.11;100680.94;5091316;27;69723;-34
2023/02/02 08:48:41;;;;;;;;;;;;;;;31.66;61.92;100681.31;5093831;27;66245;-35
2023/02/02 08:51:14;;;;;;;;;;;;;;;31.69;62.10;100674.59;5091020;27;70403;-34
2023/02/02 08:53:45;;;;;;;;;;;;;;;31.74;61.91;100680.16;5074567;27;66426;-35
2023/02/02 08:56:19;;;;;;;;;;;;;;;31.75;62.28;100677.19;5068278;27;69116;-34
2023/02/02 08:58:51;;;;;;;;;;;;;;;31.79;61.94;100674.88;5096728;27;65962;-35
2023/02/02 09:01:23;;;;;;;;;;;;;;;31.81;62.06;100680.88;5096452;27;69469;-36
2023/02/02 09:04:05;;;;;;;;;;;;;;;31.85;61.88;100698.34;5091678;27;66371;-35
2023/02/02 09:06:39;;;;;;;;;;;;;;;31.87;62.13;100701.63;5099177;27;69750;-36
2023/02/02 09:09:12;;;;;;;;;;;;;;;31.91;61.90;100712.88;5092516;27;66074;-33
2023/02/02 09:11:43;;;;;;;;;;;;;;;31.93;61.81;100702.63;5098139;27;70336;-35
2023/02/02 09:14:14;;;;;;;;;;;;;;;31.95;61.55;100709.47;5096436;27;66040;-35
2023/02/02 09:16:45;;;;;;;;;;;;;;;31.66;63.28;100704.88;5093109;27;70308;-34
2023/02/02 09:19:16;;;;;;;;;;;;;;;31.51;64.45;100714.25;5089551;27;66151;-37
2023/02/02 09:21:48;;;;;;;;;;;;;;;31.45;64.87;100689.94;5092896;27;70704;-36
2023/02/02 09:24:18;;;;;;;;;;;;;;;31.37;65.26;100697.34;5089899;27;67006;-38
2023/02/02 09:26:49;;;;;;;;;;;;;;;31.30;65.42;100712.81;5093078;27;70102;-39
2023/02/02 09:29:20;;;;;;;;;;;;;;;31.28;65.74;100700.53;5087072;27;66645;-35
2023/02/02 09:31:50;;;;;;;;;;;;;;;31.22;65.81;100706.88;5089097;27;69057;-37
2023/02/02 09:34:21;;;;;;;;;;;;;;;31.24;66.12;100707.47;5071214;27;66277;-38
2023/02/02 09:36:53;;;;;;;;;;;;;;;31.22;66.26;100715.81;5070253;27;69510;-36
2023/02/02 09:39:23;;;;;;;;;;;;;;;31.20;66.73;100708.97;5091551;27;67112;-37
2023/02/02 09:42:17;;;;;;;;;;;;;;;31.21;66.80;100707.94;5089494;27;70111;-35
2023/02/02 09:45:08;;;;;;;;;;;;;;;31.20;66.95;100717.09;5065548;27;66922;-35
2023/02/02 09:47:55;;;;;;;;;;;;;;;31.15;66.95;100705.06;5092722;27;70143;-34
2023/02/02 09:50:51;;;;;;;;;;;;;;;31.19;67.26;100705.44;5093392;27;66678;-34
2023/02/02 09:53:40;;;;;;;;;;;;;;;31.19;66.88;100699.19;5075727;27;70599;-37
2023/02/02 09:56:30;;;;;;;;;;;;;;;31.15;67.51;100694.25;5083531;27;66830;-34
2023/02/02 09:59:02;;;;;;;;;;;;;;;31.20;68.43;100695.44;5092026;27;68927;-34
2023/02/02 10:01:51;;;;;;;;;;;;;;;31.16;68.25;100695.06;5091107;27;65686;-34
2023/02/02 10:04:26;;;;;;;;;;;;;;;31.21;68.41;100697.09;5091159;27;69337;-37
2023/02/02 10:06:59;;;;;;;;;;;;;;;31.21;69.41;100697.09;5091027;27;66014;-34
2023/02/02 10:09:42;;;;;;;;;;;;;;;31.22;69.08;100704.16;5092860;27;69141;-36
2023/02/02 10:12:15;;;;;;;;;;;;;;;31.23;69.52;100703.09;5097373;27;65627;-34
2023/02/02 10:14:57;;;;;;;;;;;;;;;31.23;69.96;100698.53;5093802;27;69115;-35
2023/02/02 10:17:57;;;;;;;;;;;;;;;31.25;70.44;100703.72;5094046;27;66812;-34
2023/02/02 10:20:45;;;;;;;;;;;;;;;31.32;70.29;100699.03;5066384;27;69702;-35
2023/02/02 10:23:25;;;;;;;;;;;;;;;31.52;69.52;100691.50;5099713;27;66003;-35
2023/02/02 10:26:08;;;;;;;;;;;;;;;31.60;68.95;100696.59;5099798;27;70504;-34
2023/02/02 10:28:42;;;;;;;;;;;;;;;31.43;68.94;100705.63;5091755;27;66875;-35
2023/02/02 10:31:18;;;;;;;;;;;;;;;31.31;68.91;100702.78;5090402;27;69229;-34
2023/02/02 10:33:57;;;;;;;;;;;;;;;31.26;68.41;100706.19;5074653;27;66777;-35
2023/02/02 10:36:36;;;;;;;;;;;;;;;31.19;69.04;100700.03;5097830;27;69972;-36
2023/02/02 10:39:29;;;;;;;;;;;;;;;31.16;69.40;100705.91;5087292;27;66042;-35
2023/02/02 10:42:11;;;;;;;;;;;;;;;31.17;69.71;100705.69;5094409;27;70222;-35
2023/02/02 10:44:48;;;;;;;;;;;;;;;31.20;69.41;100703.56;5076710;27;65929;-36
2023/02/02 10:47:23;;;;;;;;;;;;;;;31.19;69.94;100699.19;5093859;27;68962;-37
2023/02/02 10:50:20;;;;;;;;;;;;;;;31.16;69.51;100695.88;5090335;27;65983;-35
2023/02/02 10:52:59;;;;;;;;;;;;;;;31.16;69.35;100700.47;5092431;27;69848;-35
2023/02/02 10:55:33;;;;;;;;;;;;;;;31.15;69.51;100709.66;5093891;27;67073;-37
2023/02/02 10:58:13;;;;;;;;;;;;;;;31.15;69.37;100710.50;5065131;27;69951;-36
2023/02/02 11:00:57;;;;;;;;;;;;;;;31.16;69.14;100701.31;5081362;27;65551;-35
2023/02/02 11:03:28;;;;;;;;;;;;;;;31.14;69.05;100703.41;5098597;27;70061;-36
2023/02/02 11:08:55;;;;;;;;;;;;;;;31.13;69.40;100706.34;5078967;27;69212;-38
2023/02/02 11:11:26;;;;;;;;;;;;;;;31.13;68.77;100707.19;5093374;27;66861;-35
2023/02/02 11:13:57;;;;;;;;;;;;;;;31.11;68.92;100708.44;5092416;27;69993;-36
2023/02/02 11:16:32;;;;;;;;;;;;;;;31.08;69.07;100720.56;5096488;27;66181;-35
2023/02/02 11:19:18;;;;;;;;;;;;;;;31.05;68.96;100710.19;5083617;27;70105;-37
2023/02/02 11:21:55;;;;;;;;;;;;;;;31.04;68.98;100719.38;5099335;27;65548;-36
2023/02/02 11:24:29;;;;;;;;;;;;;;;31.01;69.00;100718.97;5078959;27;69864;-38
2023/02/02 11:27:02;;;;;;;;;;;;;;;30.96;68.68;100716.97;5096893;27;65609;-35
2023/02/02 11:29:32;;;;;;;;;;;;;;;30.96;68.43;100727.78;5079229;27;70676;-37
2023/02/02 11:32:22;;;;;;;;;;;;;;;30.95;68.22;100734.25;5079030;27;66546;-37
2023/02/02 11:35:01;;;;;;;;;;;;;;;30.90;68.71;100728.69;5087176;27;70077;-39
2023/02/02 11:37:33;;;;;;;;;;;;;;;30.90;68.42;100728.69;5085131;27;66827;-38
2023/02/02 11:40:26;;;;;;;;;;;;;;;30.88;68.85;100725.38;5098237;27;70251;-34
2023/02/02 11:42:59;;;;;;;;;;;;;;;30.86;68.26;100731.00;5092110;27;65964;-36
2023/02/02 11:45:34;;;;;;;;;;;;;;;30.84;68.28;100740.41;5088961;27;69766;-34
2023/02/02 11:48:18;;;;;;;;;;;;;;;30.81;68.50;100738.97;5094979;27;66661;-37
2023/02/02 11:50:52;;;;;;;;;;;;;;;30.80;68.43;100739.22;5093171;27;69991;-36
2023/02/02 11:53:24;;;;;;;;;;;;;;;30.79;68.18;100740.25;5095693;27;66560;-38
2023/02/02 11:55:57;;;;;;;;;;;;;;;30.79;68.45;100742.94;5075865;27;69085;-37
2023/02/02 11:58:40;;;;;;;;;;;;;;;30.77;68.51;100745.88;5070601;27;67219;-37
2023/02/02 12:01:29;;;;;;;;;;;;;;;30.76;68.09;100746.06;5072907;27;69859;-35
2023/02/02 12:04:01;;;;;;;;;;;;;;;30.75;68.10;100757.97;5095909;27;66987;-37
2023/02/02 12:06:31;;;;;;;;;;;;;;;30.72;68.13;100770.88;5089794;27;69661;-36
2023/02/02 12:09:11;;;;;;;;;;;;;;;30.71;68.39;100766.53;5068826;27;65528;-37
2023/02/02 12:11:57;;;;;;;;;;;;;;;30.69;68.46;100773.22;5088982;27;70021;-37
2023/02/02 12:14:27;;;;;;;;;;;;;;;30.68;67.85;100780.53;5083642;27;65789;-40
2023/02/02 12:17:11;;;;;;;;;;;;;;;30.67;68.31;100773.47;5093398;27;69690;-39
2023/02/02 12:19:54;;;;;;;;;;;;;;;30.65;68.36;100780.16;5090218;27;66636;-41
2023/02/02 12:22:32;;;;;;;;;;;;;;;30.66;67.82;100782.63;5084541;27;69144;-37
2023/02/02 12:25:06;;;;;;;;;;;;;;;30.63;68.07;100782.25;5064872;27;66168;-37
2023/02/02 12:27:49;;;;;;;;;;;;;;;30.62;67.75;100796.81;5095058;27;68663;-36
2023/02/02 12:30:27;;;;;;;;;;;;;;;30.59;67.91;100792.69;5092418;27;66641;-38
2023/02/02 12:33:15;;;;;;;;;;;;;;;30.60;68.04;100794.34;5090643;27;69070;-37
2023/02/02 12:35:53;;;;;;;;;;;;;;;30.59;67.95;100791.84;5085684;27;65911;-38
2023/02/02 12:38:31;;;;;;;;;;;;;;;30.58;68.00;100793.72;5061969;27;69912;-40
2023/02/02 12:41:10;;;;;;;;;;;;;;;30.58;69.22;100807.25;5067792;27;64934;-36
2023/02/02 12:43:49;;;;;;;;;;;;;;;30.57;69.18;100805.59;5071054;27;69615;-36
2023/02/02 12:46:39;;;;;;;;;;;;;;;30.55;69.43;100813.09;5086285;27;65476;-39
2023/02/02 12:49:29;;;;;;;;;;;;;;;30.60;69.87;100816.00;5090380;27;69687;-38
2023/02/02 12:52:14;;;;;;;;;;;;;;;30.62;70.53;100824.72;5073667;27;65922;-34
2023/02/02 12:54:51;;;;;;;;;;;;;;;30.48;67.63;100823.19;5085251;27;69922;-35
2023/02/02 12:57:26;;;;;;;;;;;;;;;30.35;64.98;100823.25;5087854;27;65798;-38
2023/02/02 12:59:57;;;;;;;;;;;;;;;30.16;63.08;100827.69;5087746;27;69985;-40
2023/02/02 13:02:47;;;;;;;;;;;;;;;30.06;62.61;100837.13;5053450;27;66127;-39
2023/02/02 13:05:24;;;;;;;;;;;;;;;29.97;61.64;100834.88;5087313;27;69831;-37
2023/02/02 13:08:06;;;;;;;;;;;;;;;29.84;60.33;100833.91;5086437;27;66100;-38
2023/02/02 13:10:39;;;;;;;;;;;;;;;29.77;59.38;100848.47;5058717;27;68974;-40
2023/02/02 13:13:16;;;;;;;;;;;;;;;29.68;57.80;100856.00;5091918;27;66305;-37
2023/02/02 13:15:49;;;;;;;;;;;;;;;29.61;57.12;100855.13;5086395;27;70795;-36
2023/02/02 13:18:28;;;;;;;;;;;;;;;29.57;56.17;100853.91;5088691;27;66659;-40
2023/02/02 13:21:02;;;;;;;;;;;;;;;29.45;55.22;100861.00;5092105;27;69194;-36